Time;durP1;ratioP1;P1;durP2;ratioP2;P2;SDS_P1;SDS_P2;PMS_P1;PMS_P2;Temp;Humidity;BMP_temperature;BMP_pressure;BME280_temperature;BME280_humidity;BME280_pressure;Samples;Min_cycle;Max_cycle;Signal;HPM_P1;HPM_P2
2023/01/01 00:01:15;;;;;;;11.93;5.95;;;16.30;65.10;;;;;;5093693;28;20422;-67
2023/01/01 00:03:43;;;;;;;12.05;6.15;;;16.30;64.80;;;;;;5092570;28;20422;-66
2023/01/01 00:06:11;;;;;;;8.98;4.68;;;16.30;64.80;;;;;;5092621;28;20413;-67
2023/01/01 00:08:39;;;;;;;9.50;3.90;;;16.30;65.00;;;;;;5092427;28;20887;-67
2023/01/01 00:11:08;;;;;;;8.80;3.75;;;16.30;65.00;;;;;;5092774;28;20413;-65
2023/01/01 00:13:36;;;;;;;5.73;4.17;;;16.30;64.50;;;;;;5093399;28;20782;-62
2023/01/01 00:16:06;;;;;;;7.38;3.70;;;16.30;64.20;;;;;;5092444;28;20505;-63
2023/01/01 00:18:33;;;;;;;6.70;3.93;;;16.30;64.30;;;;;;5092595;28;20421;-64
2023/01/01 00:21:06;;;;;;;5.97;3.70;;;16.30;63.90;;;;;;5092993;28;20405;-65
2023/01/01 00:23:33;;;;;;;6.00;3.45;;;16.40;63.50;;;;;;5092842;28;20735;-65
2023/01/01 00:26:00;;;;;;;8.25;4.00;;;16.40;63.40;;;;;;5094102;28;20402;-65
2023/01/01 00:28:27;;;;;;;7.88;3.70;;;16.40;63.20;;;;;;5097357;28;20405;-65
2023/01/01 00:30:54;;;;;;;11.75;4.15;;;16.40;62.90;;;;;;5096496;28;20410;-65
2023/01/01 00:33:20;;;;;;;8.38;5.07;;;16.40;62.90;;;;;;5097112;28;20416;-67
2023/01/01 00:35:47;;;;;;;8.73;4.10;;;16.50;62.90;;;;;;5096841;28;20504;-67
2023/01/01 00:38:15;;;;;;;10.02;4.32;;;16.50;62.70;;;;;;5097364;28;20421;-66
2023/01/01 00:40:42;;;;;;;10.32;3.63;;;16.50;62.70;;;;;;5096503;28;20421;-66
2023/01/01 00:43:08;;;;;;;7.35;3.50;;;16.50;62.70;;;;;;5096322;28;20405;-66
2023/01/01 00:45:35;;;;;;;8.85;3.35;;;16.50;62.70;;;;;;5096465;28;20480;-65
2023/01/01 00:48:02;;;;;;;6.68;3.28;;;16.50;62.70;;;;;;5096306;28;20410;-65
2023/01/01 00:50:29;;;;;;;7.15;3.30;;;16.50;62.40;;;;;;5096451;28;20409;-66
2023/01/01 00:52:55;;;;;;;5.55;2.63;;;16.60;62.50;;;;;;5096518;28;20412;-66
2023/01/01 00:55:23;;;;;;;7.18;3.40;;;16.60;62.40;;;;;;5096338;28;20422;-67
2023/01/01 00:57:50;;;;;;;9.65;3.50;;;16.60;62.30;;;;;;5096307;28;20770;-67
2023/01/01 01:00:17;;;;;;;6.82;3.30;;;16.60;62.40;;;;;;5096166;28;20414;-66
2023/01/01 01:02:44;;;;;;;6.33;2.87;;;16.60;62.10;;;;;;5095756;28;20429;-65
2023/01/01 01:05:11;;;;;;;9.07;3.33;;;16.60;62.00;;;;;;5095458;28;20497;-64
2023/01/01 01:07:38;;;;;;;7.35;3.10;;;16.60;61.90;;;;;;5095224;28;20410;-65
2023/01/01 01:10:07;;;;;;;6.93;3.30;;;16.70;61.80;;;;;;5095793;28;20410;-66
2023/01/01 01:12:35;;;;;;;8.85;3.17;;;16.70;61.70;;;;;;5095992;28;20418;-64
2023/01/01 01:15:03;;;;;;;8.10;3.50;;;16.70;61.90;;;;;;5095538;28;20416;-64
2023/01/01 01:17:30;;;;;;;7.93;3.38;;;16.70;61.90;;;;;;5095737;28;20414;-65
2023/01/01 01:19:56;;;;;;;7.17;3.80;;;16.70;62.50;;;;;;5095462;28;20784;-64
2023/01/01 01:22:23;;;;;;;6.87;3.50;;;16.70;62.40;;;;;;5095673;28;20496;-65
2023/01/01 01:24:50;;;;;;;11.05;5.70;;;16.60;62.30;;;;;;5095427;28;20417;-64
2023/01/01 01:27:17;;;;;;;12.10;3.70;;;16.60;62.30;;;;;;5095720;28;20416;-64
2023/01/01 01:29:45;;;;;;;8.32;3.40;;;16.60;62.00;;;;;;5095353;28;20422;-65
2023/01/01 01:32:12;;;;;;;6.50;3.22;;;16.70;61.80;;;;;;5095071;28;20898;-64
2023/01/01 01:34:39;;;;;;;7.03;3.28;;;16.70;61.40;;;;;;5094878;28;20894;-66
2023/01/01 01:37:06;;;;;;;7.13;3.63;;;16.80;61.50;;;;;;5094525;28;20905;-65
2023/01/01 01:39:33;;;;;;;7.35;3.20;;;16.70;61.40;;;;;;5094965;28;20409;-65
2023/01/01 01:42:02;;;;;;;11.35;3.92;;;16.70;61.20;;;;;;5095271;28;20420;-66
2023/01/01 01:44:54;;;;;;;7.00;3.40;;;16.70;61.40;;;;;;5094973;28;20947;-65
2023/01/01 01:47:25;;;;;;;7.28;3.60;;;16.70;61.30;;;;;;5094811;28;20874;-66
2023/01/01 01:49:55;;;;;;;7.15;3.50;;;16.70;61.30;;;;;;5095500;28;20831;-65
2023/01/01 01:52:22;;;;;;;7.25;3.80;;;16.70;61.40;;;;;;5095124;28;20420;-65
2023/01/01 01:54:49;;;;;;;5.83;3.30;;;16.70;61.80;;;;;;5094184;28;20984;-64
2023/01/01 01:57:16;;;;;;;9.50;4.00;;;16.60;62.10;;;;;;5094202;28;20936;-64
2023/01/01 01:59:49;;;;;;;9.82;4.20;;;16.60;62.10;;;;;;5094525;28;20418;-65
2023/01/01 02:02:23;;;;;;;7.05;3.90;;;16.60;62.40;;;;;;5094307;28;20401;-64
2023/01/01 02:04:50;;;;;;;7.27;4.20;;;16.50;62.60;;;;;;5094308;28;20458;-65
2023/01/01 02:07:19;;;;;;;8.10;3.90;;;16.50;62.70;;;;;;5094136;28;20406;-65
2023/01/01 02:09:46;;;;;;;8.05;4.10;;;16.50;62.70;;;;;;5094185;28;20414;-65
2023/01/01 02:12:12;;;;;;;7.65;4.20;;;16.50;62.70;;;;;;5094303;28;20405;-64
2023/01/01 02:14:39;;;;;;;11.48;4.30;;;16.40;62.60;;;;;;5094014;28;20413;-65
2023/01/01 02:17:15;;;;;;;6.55;3.75;;;16.40;62.70;;;;;;5094202;28;20429;-65
2023/01/01 02:19:58;;;;;;;10.43;4.38;;;16.40;62.80;;;;;;5093776;28;20417;-65
2023/01/01 02:22:32;;;;;;;9.38;4.18;;;16.40;63.00;;;;;;5093797;28;20410;-65
2023/01/01 02:25:09;;;;;;;8.15;3.90;;;16.40;63.30;;;;;;5093963;28;20410;-64
2023/01/01 02:27:49;;;;;;;10.75;4.20;;;16.30;63.10;;;;;;5093264;28;20405;-65
2023/01/01 02:30:18;;;;;;;7.63;4.10;;;16.30;62.60;;;;;;5093267;28;20898;-64
2023/01/01 02:32:49;;;;;;;9.55;4.32;;;16.40;62.40;;;;;;5093313;28;20412;-63
2023/01/01 02:35:37;;;;;;;10.07;4.50;;;16.40;61.90;;;;;;5092812;28;20925;-64
2023/01/01 02:38:09;;;;;;;8.25;4.03;;;16.40;61.80;;;;;;5093699;28;20455;-64
2023/01/01 02:40:44;;;;;;;6.93;3.90;;;16.40;61.60;;;;;;5093189;28;20545;-64
2023/01/01 02:43:10;;;;;;;10.40;3.80;;;16.40;61.60;;;;;;5092768;28;20418;-64
2023/01/01 02:45:38;;;;;;;6.70;4.00;;;16.40;61.20;;;;;;5093346;28;20410;-64
2023/01/01 02:48:06;;;;;;;8.38;4.35;;;16.40;61.00;;;;;;5093325;28;20410;-64
2023/01/01 02:50:34;;;;;;;10.75;4.28;;;16.40;61.00;;;;;;5092321;28;20410;-63
2023/01/01 02:53:15;;;;;;;6.93;3.70;;;16.30;60.70;;;;;;5093537;28;20408;-63
2023/01/01 02:56:00;;;;;;;10.00;4.00;;;16.30;60.70;;;;;;5093480;28;20736;-65
2023/01/01 03:01:29;;;;;;;6.53;3.90;;;16.30;60.40;;;;;;5062181;28;20408;-65
2023/01/01 03:04:07;;;;;;;6.65;3.45;;;16.20;60.40;;;;;;5092962;28;20414;-63
2023/01/01 03:06:41;;;;;;;7.47;4.13;;;16.20;60.50;;;;;;5093462;28;20406;-64
2023/01/01 03:09:15;;;;;;;7.85;4.10;;;16.20;60.40;;;;;;5093332;28;20460;-66
2023/01/01 03:11:50;;;;;;;7.78;4.00;;;16.20;60.00;;;;;;5093106;28;20414;-64
2023/01/01 03:14:22;;;;;;;10.70;4.10;;;16.20;59.80;;;;;;5093023;28;20909;-64
2023/01/01 03:16:57;;;;;;;9.10;4.25;;;16.20;60.40;;;;;;5092786;28;20418;-65
2023/01/01 03:19:27;;;;;;;9.23;3.70;;;16.20;59.50;;;;;;5093289;28;20418;-64
2023/01/01 03:21:59;;;;;;;6.65;3.40;;;16.30;59.50;;;;;;5093169;28;20406;-63
2023/01/01 03:24:30;;;;;;;9.38;4.40;;;16.30;59.30;;;;;;5092721;28;20423;-64
2023/01/01 03:27:00;;;;;;;7.00;3.85;;;16.20;59.20;;;;;;5092629;28;20883;-65
2023/01/01 03:29:31;;;;;;;7.97;4.00;;;16.20;59.30;;;;;;5092983;28;20476;-65
2023/01/01 03:32:04;;;;;;;10.38;4.20;;;16.10;59.20;;;;;;5092845;28;20414;-64
2023/01/01 03:34:35;;;;;;;7.00;3.40;;;16.10;59.20;;;;;;5092812;28;20820;-64
2023/01/01 03:37:06;;;;;;;5.15;3.70;;;16.20;58.80;;;;;;5093089;28;20422;-65
2023/01/01 03:39:36;;;;;;;7.15;3.58;;;16.20;58.40;;;;;;5092685;28;20524;-63
2023/01/01 03:42:12;;;;;;;8.63;3.70;;;16.10;58.40;;;;;;5092566;28;20501;-64
2023/01/01 03:44:46;;;;;;;7.50;3.60;;;16.10;58.40;;;;;;5092519;28;20409;-65
2023/01/01 03:47:15;;;;;;;6.30;3.65;;;16.10;58.20;;;;;;5092475;28;20406;-64
2023/01/01 03:49:42;;;;;;;9.27;3.72;;;16.10;58.30;;;;;;5092434;28;20425;-64
2023/01/01 03:52:30;;;;;;;6.20;3.10;;;16.00;58.30;;;;;;5092452;28;20410;-64
2023/01/01 03:55:04;;;;;;;7.68;3.45;;;16.00;58.50;;;;;;5092250;28;20414;-64
2023/01/01 03:57:42;;;;;;;7.32;3.30;;;15.90;58.30;;;;;;5092132;28;20418;-64
2023/01/01 04:00:15;;;;;;;6.50;3.17;;;15.90;58.20;;;;;;5092934;28;20736;-63
2023/01/01 04:02:48;;;;;;;6.90;3.05;;;16.00;58.00;;;;;;5092770;28;20463;-63
2023/01/01 04:05:17;;;;;;;6.60;2.97;;;16.00;57.90;;;;;;5092519;28;20409;-65
2023/01/01 04:10:57;;;;;;;10.33;3.50;;;16.00;57.10;;;;;;5090631;28;20345;-63
2023/01/01 04:13:23;;;;;;;5.50;3.17;;;16.00;57.50;;;;;;5089848;28;20403;-64
2023/01/01 04:15:50;;;;;;;7.53;2.90;;;16.00;57.50;;;;;;5089420;28;20779;-64
2023/01/01 04:18:17;;;;;;;7.07;2.80;;;15.90;57.50;;;;;;5089446;28;20795;-63
2023/01/01 04:20:44;;;;;;;6.05;2.67;;;15.90;57.70;;;;;;5089185;28;20414;-64
2023/01/01 04:23:10;;;;;;;7.25;2.92;;;15.90;57.70;;;;;;5113712;22;20431;-61
2023/01/01 04:25:37;;;;;;;5.90;2.70;;;15.90;57.50;;;;;;5089373;28;20415;-62
2023/01/01 04:28:05;;;;;;;6.57;3.10;;;15.90;57.80;;;;;;5089552;28;20406;-62
2023/01/01 04:30:32;;;;;;;5.90;2.90;;;15.80;57.90;;;;;;5089442;28;20429;-62
2023/01/01 04:32:59;;;;;;;6.03;2.72;;;15.80;58.00;;;;;;5089533;28;20783;-62
2023/01/01 04:35:25;;;;;;;13.48;3.40;;;15.80;58.00;;;;;;5089429;28;20411;-62
2023/01/01 04:37:52;;;;;;;6.07;2.70;;;15.80;58.00;;;;;;5089201;28;20886;-62
2023/01/01 04:40:19;;;;;;;6.28;3.00;;;15.80;58.10;;;;;;5089576;28;20446;-62
2023/01/01 04:42:45;;;;;;;4.38;2.30;;;15.80;58.50;;;;;;5088733;28;20787;-62
2023/01/01 04:45:14;;;;;;;7.65;2.50;;;15.70;58.20;;;;;;5088889;28;20415;-61
2023/01/01 04:47:41;;;;;;;6.10;2.30;;;15.70;58.10;;;;;;5089215;28;20426;-62
2023/01/01 04:50:09;;;;;;;3.40;2.47;;;15.70;58.20;;;;;;5089028;28;20426;-61
2023/01/01 04:52:35;;;;;;;4.38;2.30;;;15.70;58.60;;;;;;5088921;28;20411;-61
2023/01/01 04:55:02;;;;;;;5.43;2.08;;;15.70;58.40;;;;;;5089106;28;20438;-61
2023/01/01 04:57:29;;;;;;;6.23;2.27;;;15.70;58.20;;;;;;5088901;28;20420;-62
2023/01/01 04:59:56;;;;;;;6.65;2.38;;;15.70;58.30;;;;;;5089313;28;20891;-62
2023/01/01 05:02:24;;;;;;;5.90;2.30;;;15.70;58.20;;;;;;5089335;28;20422;-61
2023/01/01 05:04:51;;;;;;;3.42;2.00;;;15.70;58.20;;;;;;5089644;28;20775;-62
2023/01/01 05:07:17;;;;;;;5.53;2.22;;;15.70;58.20;;;;;;5089399;28;20415;-62
2023/01/01 05:09:44;;;;;;;4.38;2.30;;;15.70;58.40;;;;;;5088910;28;20463;-62
2023/01/01 05:12:11;;;;;;;5.60;1.98;;;15.60;58.60;;;;;;5089410;28;20411;-61
2023/01/01 05:14:37;;;;;;;5.65;2.20;;;15.60;58.70;;;;;;5089812;28;20407;-62
2023/01/01 05:17:04;;;;;;;4.38;1.90;;;15.60;58.60;;;;;;5089401;28;20895;-62
2023/01/01 05:19:32;;;;;;;4.90;2.00;;;15.60;58.60;;;;;;5089318;28;20411;-60
2023/01/01 05:21:59;;;;;;;4.78;2.20;;;15.60;58.60;;;;;;5077369;28;20416;-63
2023/01/01 05:24:25;;;;;;;3.30;1.88;;;15.60;58.60;;;;;;5077102;28;20412;-61
2023/01/01 05:26:53;;;;;;;3.70;1.90;;;15.60;58.40;;;;;;5075712;28;20414;-61
2023/01/01 05:29:21;;;;;;;3.30;2.00;;;15.60;58.70;;;;;;5076316;28;20459;-61
2023/01/01 05:31:48;;;;;;;5.13;1.90;;;15.60;58.70;;;;;;5075626;28;20855;-62
2023/01/01 05:34:14;;;;;;;3.50;1.80;;;15.60;58.50;;;;;;5075673;28;20407;-62
2023/01/01 05:36:42;;;;;;;7.88;1.90;;;15.60;58.60;;;;;;5075422;28;20490;-62
2023/01/01 05:39:11;;;;;;;3.25;1.90;;;15.50;58.90;;;;;;5075245;28;20419;-62
2023/01/01 05:41:38;;;;;;;4.60;1.70;;;15.50;59.00;;;;;;5077793;28;20416;-62
2023/01/01 05:44:07;;;;;;;4.75;1.58;;;15.50;58.90;;;;;;5078465;28;20423;-62
2023/01/01 05:46:34;;;;;;;4.50;1.67;;;15.50;59.10;;;;;;5077846;28;20776;-62
2023/01/01 05:49:01;;;;;;;3.80;2.00;;;15.50;59.00;;;;;;5078481;28;20410;-61
2023/01/01 05:51:30;;;;;;;4.22;1.73;;;15.50;58.90;;;;;;5077309;28;20416;-62
2023/01/01 05:53:58;;;;;;;6.72;2.10;;;15.60;59.00;;;;;;5076555;28;20965;-62
2023/01/01 05:56:26;;;;;;;5.35;1.67;;;15.60;58.80;;;;;;5074363;28;20424;-62
2023/01/01 05:58:53;;;;;;;2.70;1.70;;;15.60;58.90;;;;;;5074412;28;20416;-61
2023/01/01 06:01:22;;;;;;;5.03;2.03;;;15.60;58.90;;;;;;5074408;28;20408;-62
2023/01/01 06:03:49;;;;;;;3.40;1.30;;;15.60;59.10;;;;;;5074192;28;20422;-63
2023/01/01 06:06:17;;;;;;;3.55;1.80;;;15.50;59.00;;;;;;5073789;28;20910;-62
2023/01/01 06:08:49;;;;;;;4.55;2.05;;;15.60;59.10;;;;;;5074025;28;20427;-62
2023/01/01 06:11:18;;;;;;;3.10;1.50;;;15.60;59.00;;;;;;5074599;28;20420;-62
2023/01/01 06:13:44;;;;;;;4.63;1.70;;;15.60;59.10;;;;;;5076225;28;20423;-63
2023/01/01 06:16:11;;;;;;;2.55;1.50;;;15.60;59.30;;;;;;5076735;28;20415;-62
2023/01/01 06:18:38;;;;;;;3.83;1.53;;;15.60;59.40;;;;;;5077363;28;20415;-61
2023/01/01 06:21:06;;;;;;;2.72;1.50;;;15.50;59.40;;;;;;5077692;28;20482;-62
2023/01/01 06:23:33;;;;;;;3.38;1.67;;;15.50;59.40;;;;;;5074459;28;20407;-62
2023/01/01 06:26:05;;;;;;;2.70;1.52;;;15.50;59.00;;;;;;5076548;28;20411;-61
2023/01/01 06:28:33;;;;;;;2.20;1.53;;;15.60;59.20;;;;;;5080891;28;20415;-62
2023/01/01 06:31:00;;;;;;;5.20;2.10;;;15.50;59.30;;;;;;5079924;28;20500;-61
2023/01/01 06:33:27;;;;;;;4.27;1.50;;;15.50;59.40;;;;;;5077687;28;20502;-61
2023/01/01 06:35:54;;;;;;;4.15;1.60;;;15.50;59.60;;;;;;5078472;28;20408;-61
2023/01/01 06:38:21;;;;;;;3.00;1.40;;;15.50;59.60;;;;;;5081065;28;20906;-62
2023/01/01 06:40:55;;;;;;;2.58;1.30;;;15.40;59.70;;;;;;5078126;28;20754;-62
2023/01/01 06:43:22;;;;;;;3.63;1.50;;;15.40;59.80;;;;;;5076493;28;20412;-61
2023/01/01 06:45:59;;;;;;;3.45;1.40;;;15.40;60.30;;;;;;5077951;28;20411;-61
2023/01/01 06:48:26;;;;;;;3.50;1.50;;;15.30;60.00;;;;;;5075022;28;20412;-61
2023/01/01 06:50:52;;;;;;;4.13;1.50;;;15.30;60.50;;;;;;5075399;28;20423;-67
2023/01/01 06:53:19;;;;;;;2.57;1.30;;;15.20;60.60;;;;;;5079503;28;20411;-64
2023/01/01 06:55:48;;;;;;;4.90;1.70;;;15.20;60.40;;;;;;5076028;28;20411;-60
2023/01/01 06:58:15;;;;;;;3.47;1.40;;;15.20;60.50;;;;;;5072644;28;20416;-61
2023/01/01 07:00:42;;;;;;;4.88;1.42;;;15.20;60.70;;;;;;5073137;28;20411;-61
2023/01/01 07:03:11;;;;;;;4.93;1.90;;;15.20;60.80;;;;;;5072858;28;20415;-60
2023/01/01 07:05:38;;;;;;;2.70;1.40;;;15.10;60.80;;;;;;5072968;28;20765;-60
2023/01/01 07:08:05;;;;;;;3.03;1.50;;;15.10;60.80;;;;;;5073107;28;20415;-61
2023/01/01 07:10:31;;;;;;;3.33;1.60;;;15.10;61.00;;;;;;5072974;28;20438;-61
2023/01/01 07:12:59;;;;;;;4.23;1.60;;;15.00;61.00;;;;;;5072914;28;20521;-60
2023/01/01 07:15:26;;;;;;;3.00;1.38;;;15.00;61.10;;;;;;5072728;28;20495;-60
2023/01/01 07:17:53;;;;;;;2.83;1.40;;;15.00;61.50;;;;;;5072754;28;20407;-61
2023/01/01 07:20:21;;;;;;;3.03;1.45;;;14.90;61.60;;;;;;5072591;28;20416;-60
2023/01/01 07:22:47;;;;;;;3.20;1.33;;;14.90;61.60;;;;;;5072279;28;20435;-60
2023/01/01 07:25:15;;;;;;;4.93;2.20;;;14.90;61.60;;;;;;5072090;28;20761;-61
2023/01/01 07:27:41;;;;;;;5.88;2.00;;;14.90;61.90;;;;;;5072109;28;20788;-60
2023/01/01 07:30:09;;;;;;;5.10;1.60;;;14.80;62.00;;;;;;5072195;28;20431;-61
2023/01/01 07:32:36;;;;;;;2.70;1.60;;;14.80;62.10;;;;;;5072233;28;20411;-60
2023/01/01 07:35:03;;;;;;;4.35;1.70;;;14.90;62.20;;;;;;5072334;28;20438;-61
2023/01/01 07:37:31;;;;;;;4.53;1.20;;;14.90;62.30;;;;;;5072073;28;20419;-61
2023/01/01 07:39:58;;;;;;;4.00;1.40;;;14.90;62.10;;;;;;5072469;28;20757;-61
2023/01/01 07:42:24;;;;;;;2.60;1.60;;;14.90;61.90;;;;;;5072127;28;20411;-61
2023/01/01 07:44:51;;;;;;;3.20;1.42;;;15.00;62.10;;;;;;5071607;28;20412;-61
2023/01/01 07:47:21;;;;;;;3.35;1.30;;;15.00;62.10;;;;;;5072470;28;20419;-61
2023/01/01 07:49:48;;;;;;;2.90;1.50;;;15.00;62.00;;;;;;5071832;28;20910;-62
2023/01/01 07:52:15;;;;;;;3.35;1.52;;;15.00;62.00;;;;;;5071896;28;20757;-62
2023/01/01 07:54:43;;;;;;;3.85;1.42;;;15.00;62.00;;;;;;5071746;28;20907;-62
2023/01/01 07:57:10;;;;;;;2.90;1.50;;;15.00;62.10;;;;;;5072537;28;20434;-62
2023/01/01 07:59:37;;;;;;;2.70;1.50;;;15.10;62.40;;;;;;5071930;28;20415;-62
2023/01/01 08:02:04;;;;;;;3.50;1.30;;;15.10;62.20;;;;;;5071923;28;20419;-60
2023/01/01 08:04:31;;;;;;;2.73;1.50;;;15.10;62.20;;;;;;5072134;28;20403;-62
2023/01/01 08:06:58;;;;;;;3.30;1.38;;;15.10;62.30;;;;;;5071931;28;20408;-62
2023/01/01 08:09:24;;;;;;;3.20;1.40;;;15.10;62.50;;;;;;5071986;28;20814;-62
2023/01/01 08:11:52;;;;;;;3.90;1.30;;;15.10;62.50;;;;;;5071816;28;20427;-60
2023/01/01 08:14:19;;;;;;;2.35;1.40;;;15.10;62.60;;;;;;5071988;28;20414;-61
2023/01/01 08:16:46;;;;;;;5.72;1.83;;;15.10;62.80;;;;;;5071837;28;20416;-63
2023/01/01 08:19:13;;;;;;;3.00;1.30;;;15.20;62.60;;;;;;5071880;28;20416;-62
2023/01/01 08:21:39;;;;;;;3.78;1.67;;;15.20;62.70;;;;;;5071345;28;20411;-62
2023/01/01 08:24:06;;;;;;;3.90;1.60;;;15.20;62.60;;;;;;5071828;28;20412;-63
2023/01/01 08:26:34;;;;;;;3.65;1.50;;;15.20;62.70;;;;;;5071469;28;20408;-62
2023/01/01 08:29:04;;;;;;;5.43;1.65;;;15.20;62.70;;;;;;5071819;28;20422;-61
2023/01/01 08:31:31;;;;;;;3.80;1.60;;;15.20;62.70;;;;;;5071588;28;20430;-62
2023/01/01 08:33:58;;;;;;;4.07;1.70;;;15.20;62.60;;;;;;5071867;28;20423;-63
2023/01/01 08:36:25;;;;;;;3.78;1.40;;;15.20;62.50;;;;;;5072067;28;20407;-62
2023/01/01 08:38:52;;;;;;;2.80;1.23;;;15.20;62.70;;;;;;5071870;28;20415;-62
2023/01/01 08:41:19;;;;;;;5.90;1.77;;;15.20;62.80;;;;;;5071738;28;20411;-62
2023/01/01 08:43:45;;;;;;;3.95;1.40;;;15.20;62.60;;;;;;5071283;28;20441;-61
2023/01/01 08:46:13;;;;;;;4.35;1.50;;;15.20;62.60;;;;;;5071515;28;20907;-61
2023/01/01 08:48:40;;;;;;;2.97;1.45;;;15.20;62.70;;;;;;5071717;28;20420;-62
2023/01/01 08:51:07;;;;;;;3.70;1.40;;;15.20;62.90;;;;;;5071565;28;20431;-63
2023/01/01 08:53:33;;;;;;;5.40;2.72;;;15.20;63.00;;;;;;5071474;28;20418;-63
2023/01/01 08:56:03;;;;;;;2.85;1.40;;;15.20;63.20;;;;;;5072530;28;20415;-63
2023/01/01 08:58:30;;;;;;;4.60;1.63;;;15.10;63.40;;;;;;5075445;28;20419;-62
2023/01/01 09:00:58;;;;;;;2.80;1.30;;;15.20;63.60;;;;;;5075284;28;20427;-62
2023/01/01 09:03:26;;;;;;;6.30;1.50;;;15.10;63.60;;;;;;5075163;28;20426;-61
2023/01/01 09:05:53;;;;;;;5.38;1.60;;;15.10;64.00;;;;;;5074838;28;20907;-62
2023/01/01 09:08:21;;;;;;;5.30;1.58;;;15.10;64.20;;;;;;5074911;28;20415;-61
2023/01/01 09:10:48;;;;;;;3.50;1.40;;;15.10;64.10;;;;;;5074854;28;20446;-62
2023/01/01 09:13:18;;;;;;;2.53;1.30;;;15.10;64.30;;;;;;5074855;28;20412;-62
2023/01/01 09:15:45;;;;;;;2.88;1.20;;;15.10;64.50;;;;;;5074822;28;20891;-62
2023/01/01 09:18:13;;;;;;;3.28;1.58;;;15.10;64.70;;;;;;5075001;28;20419;-62
2023/01/01 09:20:41;;;;;;;3.75;1.40;;;15.10;64.90;;;;;;5074591;28;20887;-61
2023/01/01 09:23:08;;;;;;;5.40;1.40;;;15.10;65.20;;;;;;5074459;28;20412;-62
2023/01/01 09:25:35;;;;;;;2.38;1.48;;;15.10;65.50;;;;;;5074859;28;20407;-61
2023/01/01 09:28:04;;;;;;;3.70;1.70;;;15.10;66.00;;;;;;5074793;28;20415;-61
2023/01/01 09:30:31;;;;;;;3.28;1.30;;;15.10;66.40;;;;;;5074824;28;20427;-61
2023/01/01 09:32:58;;;;;;;4.72;1.73;;;15.00;67.00;;;;;;5075665;28;20411;-61
2023/01/01 09:35:24;;;;;;;4.18;1.70;;;15.00;67.80;;;;;;5075732;28;20411;-63
2023/01/01 09:37:52;;;;;;;3.35;1.55;;;14.90;69.50;;;;;;5075182;28;20416;-61
2023/01/01 09:40:28;;;;;;;3.55;1.30;;;14.70;72.30;;;;;;5075249;28;20419;-62
2023/01/01 09:43:06;;;;;;;2.67;1.60;;;14.50;75.90;;;;;;5075137;28;20415;-60
2023/01/01 09:45:39;;;;;;;3.50;1.42;;;14.20;80.10;;;;;;5074621;28;20529;-63
2023/01/01 09:48:11;;;;;;;3.17;1.70;;;14.00;84.80;;;;;;5074711;28;20416;-62
2023/01/01 09:50:41;;;;;;;3.92;1.60;;;13.80;88.30;;;;;;5074604;28;20459;-62
2023/01/01 09:53:13;;;;;;;5.05;1.80;;;13.70;90.40;;;;;;5074857;28;20411;-62
2023/01/01 09:55:45;;;;;;;3.25;1.40;;;13.60;89.60;;;;;;5074900;28;20454;-62
2023/01/01 09:58:13;;;;;;;3.45;1.35;;;13.60;88.60;;;;;;5074589;28;20419;-61
2023/01/01 10:00:43;;;;;;;2.50;1.30;;;13.60;88.70;;;;;;5074634;28;20818;-62
2023/01/01 10:03:30;;;;;;;3.20;1.48;;;13.60;89.30;;;;;;5074980;28;20801;-61
2023/01/01 10:06:06;;;;;;;3.78;1.40;;;13.60;90.30;;;;;;5074321;28;20403;-61
2023/01/01 10:08:48;;;;;;;2.78;1.50;;;13.60;91.00;;;;;;5074228;28;20887;-62
2023/01/01 10:11:24;;;;;;;3.72;1.70;;;13.60;92.30;;;;;;5074078;28;20454;-62
2023/01/01 10:13:53;;;;;;;3.10;1.60;;;13.50;93.40;;;;;;5074399;28;20416;-61
2023/01/01 10:16:29;;;;;;;2.50;1.50;;;13.50;95.80;;;;;;5074412;28;20452;-62
2023/01/01 10:18:58;;;;;;;3.85;1.80;;;13.30;98.40;;;;;;5074307;28;20418;-61
2023/01/01 10:21:30;;;;;;;3.90;1.60;;;13.10;99.90;;;;;;5073850;28;20404;-61
2023/01/01 10:24:02;;;;;;;2.83;1.90;;;12.90;99.90;;;;;;5074213;28;20415;-61
2023/01/01 10:26:31;;;;;;;5.18;1.70;;;12.70;99.90;;;;;;5073944;28;20765;-61
2023/01/01 10:29:02;;;;;;;5.57;2.10;;;12.60;99.90;;;;;;5074005;28;20415;-62
2023/01/01 10:31:33;;;;;;;3.25;1.98;;;12.50;99.90;;;;;;5073629;28;20798;-63
2023/01/01 10:34:15;;;;;;;3.95;2.30;;;12.50;99.90;;;;;;5073382;28;20772;-61
2023/01/01 10:36:43;;;;;;;4.65;1.75;;;12.40;99.90;;;;;;5073214;28;20783;-63
2023/01/01 10:39:14;;;;;;;4.22;2.20;;;12.40;99.90;;;;;;5073506;28;20419;-62
2023/01/01 10:41:41;;;;;;;3.80;2.20;;;12.30;99.90;;;;;;5073341;28;20423;-61
2023/01/01 10:44:08;;;;;;;3.50;2.10;;;12.30;99.90;;;;;;5073310;28;20419;-62
2023/01/01 10:46:38;;;;;;;4.10;1.88;;;12.30;99.90;;;;;;5073260;28;20415;-61
2023/01/01 10:49:09;;;;;;;6.30;2.45;;;12.30;99.90;;;;;;5073314;28;20421;-61
2023/01/01 10:51:41;;;;;;;4.45;2.03;;;12.20;99.90;;;;;;5127421;22;20437;-60
2023/01/01 10:54:24;;;;;;;4.60;2.28;;;12.10;99.90;;;;;;5138806;27;20407;-60
2023/01/01 10:56:51;;;;;;;6.15;2.20;;;12.00;99.90;;;;;;5137457;27;20411;-60
2023/01/01 10:59:42;;;;;;;4.13;2.40;;;11.90;99.90;;;;;;5137471;27;20778;-61
2023/01/01 11:02:19;;;;;;;4.53;2.35;;;11.90;99.90;;;;;;5119881;27;20916;-61
2023/01/01 11:04:46;;;;;;;6.20;2.50;;;11.90;99.90;;;;;;5136774;27;20413;-61
2023/01/01 11:07:29;;;;;;;5.30;2.50;;;11.90;99.90;;;;;;5136859;27;20407;-61
2023/01/01 11:10:01;;;;;;;3.78;2.28;;;12.10;99.90;;;;;;5136294;27;20434;-60
2023/01/01 11:12:31;;;;;;;4.15;2.33;;;12.10;99.90;;;;;;5135562;27;20785;-61
2023/01/01 11:14:59;;;;;;;5.90;2.78;;;12.20;99.90;;;;;;5136735;27;20415;-59
2023/01/01 11:17:27;;;;;;;6.10;2.30;;;12.30;99.90;;;;;;5136691;27;20398;-60
2023/01/01 11:19:55;;;;;;;3.40;2.05;;;12.30;99.90;;;;;;5135268;27;20902;-60
2023/01/01 11:22:40;;;;;;;3.95;1.98;;;12.40;99.90;;;;;;5135210;27;20778;-59
2023/01/01 11:25:21;;;;;;;3.85;2.22;;;12.40;99.90;;;;;;5134996;27;20812;-61
2023/01/01 11:27:49;;;;;;;5.00;2.35;;;12.40;99.90;;;;;;5134409;27;20782;-61
2023/01/01 11:30:25;;;;;;;3.67;1.90;;;12.40;99.90;;;;;;5134324;27;20889;-63
2023/01/01 11:32:56;;;;;;;6.82;2.20;;;12.40;99.90;;;;;;5133671;27;20429;-60
2023/01/01 11:35:25;;;;;;;3.35;1.83;;;12.40;99.90;;;;;;5133513;27;20407;-61
2023/01/01 11:37:53;;;;;;;4.28;1.80;;;12.40;99.90;;;;;;5134205;27;20778;-62
2023/01/01 11:40:25;;;;;;;3.43;2.03;;;12.40;99.90;;;;;;5133708;27;20983;-65
2023/01/01 11:42:56;;;;;;;5.17;2.10;;;12.40;99.90;;;;;;5133737;27;20412;-60
2023/01/01 11:45:25;;;;;;;3.90;2.00;;;12.50;99.90;;;;;;5133548;27;20403;-60
2023/01/01 11:47:56;;;;;;;3.20;1.80;;;12.50;99.90;;;;;;5134250;27;20413;-62
2023/01/01 11:50:30;;;;;;;3.45;1.70;;;12.50;99.90;;;;;;5134416;27;20418;-62
2023/01/01 11:53:00;;;;;;;4.13;1.50;;;12.50;99.90;;;;;;5134271;27;20477;-61
2023/01/01 11:55:37;;;;;;;3.22;1.80;;;12.50;99.90;;;;;;5133474;27;20410;-62
2023/01/01 11:58:14;;;;;;;4.80;1.73;;;12.50;99.90;;;;;;5134941;27;20406;-61
2023/01/01 12:00:41;;;;;;;3.73;1.70;;;12.50;99.90;;;;;;5134816;27;20429;-60
2023/01/01 12:03:17;;;;;;;2.95;1.60;;;12.50;99.90;;;;;;5137257;27;20493;-60
2023/01/01 12:05:50;;;;;;;4.47;2.40;;;12.50;99.90;;;;;;5134368;27;20889;-61
2023/01/01 12:08:25;;;;;;;3.77;1.60;;;12.50;99.90;;;;;;5133947;27;20407;-62
2023/01/01 12:10:58;;;;;;;4.22;1.80;;;12.50;99.90;;;;;;5134114;28;20417;-62
2023/01/01 12:13:28;;;;;;;4.07;1.40;;;12.50;99.90;;;;;;5134334;28;20399;-61
2023/01/01 12:16:02;;;;;;;2.90;1.55;;;12.50;99.90;;;;;;5134010;28;20411;-61
2023/01/01 12:18:35;;;;;;;3.47;1.50;;;12.40;99.90;;;;;;5133901;28;20406;-60
2023/01/01 12:21:10;;;;;;;3.13;1.40;;;12.40;99.90;;;;;;5133093;28;20406;-60
2023/01/01 12:23:37;;;;;;;3.43;1.50;;;12.40;99.90;;;;;;5133309;28;20410;-62
2023/01/01 12:26:15;;;;;;;3.13;1.40;;;12.30;99.90;;;;;;5133362;28;20407;-62
2023/01/01 12:28:51;;;;;;;3.20;1.50;;;12.30;99.90;;;;;;5135386;28;20414;-61
2023/01/01 12:31:24;;;;;;;3.80;1.70;;;12.20;99.90;;;;;;5138761;27;20430;-60
2023/01/01 12:34:05;;;;;;;4.20;2.00;;;12.20;99.90;;;;;;5139481;27;20410;-60
2023/01/01 12:36:42;;;;;;;2.05;1.60;;;12.20;99.90;;;;;;5139744;27;20410;-61
2023/01/01 12:39:44;;;;;;;3.78;1.90;;;12.20;99.90;;;;;;5140508;27;20410;-59
2023/01/01 12:42:19;;;;;;;3.17;1.75;;;12.20;99.90;;;;;;5115430;27;20413;-60
2023/01/01 12:45:01;;;;;;;4.60;2.00;;;12.30;99.90;;;;;;5140133;27;20413;-60
2023/01/01 12:47:42;;;;;;;3.55;1.80;;;12.30;99.90;;;;;;5141147;27;20411;-59
2023/01/01 12:50:20;;;;;;;4.70;1.70;;;12.30;99.90;;;;;;5140314;27;20411;-59
2023/01/01 12:52:59;;;;;;;4.03;1.95;;;12.30;99.90;;;;;;5139035;27;20448;-59
2023/01/01 12:56:07;;;;;;;3.47;2.00;;;12.20;99.90;;;;;;5139132;27;20759;-59
2023/01/01 12:58:40;;;;;;;3.67;2.17;;;12.20;99.90;;;;;;5138079;27;20405;-60
2023/01/01 13:01:11;;;;;;;3.58;2.30;;;12.10;99.90;;;;;;5139501;27;20410;-61
2023/01/01 13:03:47;;;;;;;3.72;2.25;;;12.10;99.90;;;;;;5137758;27;20416;-58
2023/01/01 13:06:18;;;;;;;3.45;2.50;;;12.10;99.90;;;;;;5137708;27;20406;-58